Accueil
METAR-TAF:

METAR-TAF

Aéroports :

Aéroport de Weeze

Weeze, Allemagne

latitude: 51-36-09N, longitude: 006-08-32E, altitude: 32 m

Observation

Le bulletin a été fait il y a 33 minutes, à 21:20 UTC
Vent 2 kt de nord/nord-ouest
Température 4°C
Humidité 70%
Pression 1023 hPa
Visibilité 10 km ou plus
pas de nuages en-dessous de 1500 mètres et pas de cumulonimbus.

METAR: EDLV 222120Z 33002KT CAVOK 04/M01 Q1023

Heure: 23:53 (21:53 UTC)

Prévision

Le bulletin a été fait il y a 4 heures et 53 minutes, à 17:00 UTC
Prévision valable du 22 à 18 UTC au 23 à 18 UTC
Vent 8 kt de nord/nord-est
Visibilité 10 km ou plus
Nuages épars à une hauteur de 3000 ft
Evoluant progressivement
du 22 à 18 UTC au 22 à 20 UTC
Vent 3 kt de nord/nord-est
Evoluant progressivement
du 23 à 09 UTC au 23 à 12 UTC
Vent 5 kt de nord/nord-ouest

TAF: EDLV 221700Z 2218/2318 02008KT 9999 SCT030 BECMG 2218/2220 03003KT BECMG 2309/2312 33005KT

Observations et prévisions météorologiques de plus de 4000 aéroports (messages METAR et TAF).

Les stations disponibles sont représentées par des disques jaunes et rouges sur la carte.

Passer la souris dessus pour voir le nom de la station.

Cliquer dessus pour voir les observations et prévisions météorologiques.

Pour changer de carte: cliquez sur les boutons verts avec une croix noire pour zoomer, sur le bouton vert avec un tiret pour effectuer un zoom arrière, ou sur les flèches vertes pour les cartes adjacentes.


METAR-TAF: